createdAt,value
2023-04-07T00:02:09.453Z,61.55
2023-04-07T00:05:13.803Z,46.17
2023-04-07T00:08:17.499Z,33.42
2023-04-07T00:11:21.111Z,49.97
2023-04-07T00:14:24.855Z,44.63
2023-04-07T00:17:28.647Z,61.35
2023-04-07T00:20:31.734Z,46.07
2023-04-07T00:23:35.526Z,42.67
2023-04-07T00:26:39.387Z,39.45
2023-04-07T00:29:44.648Z,54.00
2023-04-07T00:32:49.158Z,36.65
2023-04-07T00:35:54.841Z,78.03
2023-04-07T00:38:58.656Z,24.20
2023-04-07T00:42:01.689Z,32.83
2023-04-07T00:45:05.972Z,22.23
2023-04-07T00:48:09.563Z,16.42
2023-04-07T00:51:13.349Z,19.93
2023-04-07T00:54:16.712Z,26.80
2023-04-07T00:57:20.906Z,12.00
2023-04-07T01:00:24.254Z,16.70
2023-04-07T01:03:50.425Z,12.75
2023-04-07T01:07:00.228Z,12.57
2023-04-07T01:10:16.321Z,23.48
2023-04-07T01:13:44.932Z,23.58
2023-04-07T01:16:59.148Z,13.18
2023-04-07T01:20:11.687Z,8.90
2023-04-07T01:23:26.463Z,11.30
2023-04-07T01:26:33.115Z,12.45
2023-04-07T01:29:48.070Z,16.90
2023-04-07T01:32:54.504Z,25.95
2023-04-07T01:36:00.471Z,16.98
2023-04-07T01:39:07.599Z,21.67
2023-04-07T01:42:11.680Z,26.63
2023-04-07T01:45:17.432Z,18.65
2023-04-07T01:48:20.468Z,25.30
2023-04-07T01:51:25.450Z,19.23
2023-04-07T01:54:29.513Z,17.03
2023-04-07T01:57:33.142Z,27.53
2023-04-07T02:00:42.570Z,20.83
2023-04-07T02:04:08.786Z,22.23
2023-04-07T02:07:20.837Z,20.35
2023-04-07T02:10:28.983Z,20.17
2023-04-07T02:13:38.502Z,17.17
2023-04-07T02:16:48.841Z,19.88
2023-04-07T02:19:54.539Z,29.70
2023-04-07T02:22:58.779Z,34.60
2023-04-07T02:26:01.881Z,25.27
2023-04-07T02:29:05.772Z,20.33
2023-04-07T02:32:09.971Z,19.60
2023-04-07T02:35:13.741Z,20.35
2023-04-07T02:38:17.439Z,47.20
2023-04-07T02:41:20.621Z,15.33
2023-04-07T02:44:24.777Z,22.93
2023-04-07T02:47:27.764Z,15.02
2023-04-07T02:50:31.167Z,19.98
2023-04-07T02:53:34.155Z,18.60
2023-04-07T02:56:39.492Z,30.53
2023-04-07T02:59:43.138Z,20.93
2023-04-07T03:02:48.974Z,20.17
2023-04-07T03:05:53.757Z,25.35
2023-04-07T03:08:57.630Z,93.35
2023-04-07T03:12:02.899Z,23.97
2023-04-07T03:15:11.579Z,28.43
2023-04-07T03:18:20.495Z,25.65
2023-04-07T03:21:24.574Z,37.72
2023-04-07T03:24:28.380Z,26.13
2023-04-07T03:27:31.857Z,23.97
2023-04-07T03:30:35.068Z,27.03
2023-04-07T03:33:38.788Z,25.27
2023-04-07T03:36:41.875Z,26.90
2023-04-07T03:39:44.966Z,22.25
2023-04-07T03:43:01.347Z,30.50
2023-04-07T03:46:06.493Z,36.77
2023-04-07T03:49:11.286Z,39.60
2023-04-07T03:52:16.276Z,22.08
2023-04-07T03:55:23.897Z,14.40
2023-04-07T03:58:31.362Z,14.77
2023-04-07T04:01:35.474Z,18.67
2023-04-07T04:04:46.272Z,21.30
2023-04-07T04:07:53.760Z,15.93
2023-04-07T04:10:58.876Z,14.38
2023-04-07T04:14:08.787Z,5.77
2023-04-07T04:17:13.252Z,8.00
2023-04-07T04:20:23.143Z,11.85
2023-04-07T04:23:27.504Z,19.17
2023-04-07T04:26:31.673Z,12.45
2023-04-07T04:29:41.491Z,10.33
2023-04-07T04:32:47.687Z,7.80
2023-04-07T04:35:54.655Z,10.25
2023-04-07T04:38:59.349Z,14.45
2023-04-07T04:42:04.662Z,19.15
2023-04-07T04:45:11.776Z,6.87
2023-04-07T04:48:18.759Z,17.53
2023-04-07T04:51:23.600Z,33.72
2023-04-07T04:54:34.080Z,9.90
2023-04-07T04:57:38.949Z,8.43
2023-04-07T05:00:47.436Z,7.03
2023-04-07T05:03:51.730Z,11.60
2023-04-07T05:07:00.221Z,6.30
2023-04-07T05:10:06.746Z,5.32
2023-04-07T05:13:11.947Z,7.82
2023-04-07T05:16:16.914Z,9.53
2023-04-07T05:19:21.076Z,5.97
2023-04-07T05:22:26.835Z,10.43
2023-04-07T05:25:29.896Z,10.52
2023-04-07T05:28:37.149Z,6.25
2023-04-07T05:31:47.843Z,6.87
2023-04-07T05:34:53.234Z,15.00
2023-04-07T05:37:57.738Z,4.93
2023-04-07T05:41:01.713Z,10.05
2023-04-07T05:44:10.117Z,7.75
2023-04-07T05:47:17.779Z,9.33
2023-04-07T05:50:21.253Z,8.13
2023-04-07T05:53:26.924Z,10.63
2023-04-07T05:56:31.410Z,3.20
2023-04-07T05:59:37.998Z,2.95
2023-04-07T06:02:42.793Z,3.40
2023-04-07T06:05:52.956Z,6.77
2023-04-07T06:08:58.012Z,5.93
2023-04-07T06:12:02.292Z,5.35
2023-04-07T06:15:06.935Z,8.38
2023-04-07T06:18:09.936Z,6.83
2023-04-07T06:21:14.042Z,5.93
2023-04-07T06:24:17.035Z,4.15
2023-04-07T06:27:22.130Z,11.27
2023-04-07T06:30:26.849Z,9.60
2023-04-07T06:33:30.836Z,14.00
2023-04-07T06:36:35.148Z,15.33
2023-04-07T06:39:39.627Z,14.15
2023-04-07T06:42:42.707Z,9.32
2023-04-07T06:46:08.640Z,14.63
2023-04-07T06:49:12.627Z,10.03
2023-04-07T06:52:16.113Z,16.93
2023-04-07T06:55:19.164Z,8.68
2023-04-07T06:58:22.471Z,8.57
2023-04-07T07:01:26.196Z,8.45
2023-04-07T07:04:30.381Z,22.37
2023-04-07T07:07:33.839Z,31.50
2023-04-07T07:10:37.418Z,13.85
2023-04-07T07:13:41.291Z,19.70
2023-04-07T07:16:45.396Z,13.23
2023-04-07T07:19:49.544Z,4.63
2023-04-07T07:22:53.682Z,12.13
2023-04-07T07:25:56.785Z,11.88
2023-04-07T07:28:59.744Z,8.73
2023-04-07T07:32:02.679Z,12.30
2023-04-07T07:35:05.906Z,14.27
2023-04-07T07:38:09.492Z,9.70
2023-04-07T07:41:13.361Z,14.88
2023-04-07T07:44:16.638Z,28.15
2023-04-07T07:47:19.723Z,11.73
2023-04-07T07:50:23.371Z,14.07
2023-04-07T07:53:27.205Z,11.53
2023-04-07T07:56:31.112Z,31.17
2023-04-07T07:59:34.834Z,9.00
2023-04-07T08:02:39.451Z,8.85
2023-04-07T08:05:43.766Z,13.60
2023-04-07T08:08:46.979Z,24.57
2023-04-07T08:11:52.100Z,9.35
2023-04-07T08:14:55.454Z,19.08
2023-04-07T08:17:58.476Z,7.15
2023-04-07T08:21:01.700Z,24.83
2023-04-07T08:24:06.455Z,9.90
2023-04-07T08:27:10.235Z,14.60
2023-04-07T08:30:14.207Z,14.50
2023-04-07T08:33:17.562Z,6.93
2023-04-07T08:36:22.466Z,10.57
2023-04-07T08:39:26.201Z,12.70
2023-04-07T08:42:32.690Z,12.75
2023-04-07T08:45:40.266Z,8.95
2023-04-07T08:48:45.781Z,27.73
2023-04-07T08:51:51.294Z,8.10
2023-04-07T08:54:55.216Z,9.30
2023-04-07T08:58:00.826Z,6.55
2023-04-07T09:01:09.337Z,8.85
2023-04-07T09:04:12.977Z,11.98
2023-04-07T09:07:16.642Z,9.03
2023-04-07T09:10:20.470Z,8.70
2023-04-07T09:13:26.284Z,12.00
2023-04-07T09:16:31.826Z,13.52
2023-04-07T09:19:36.274Z,23.73
2023-04-07T09:22:47.936Z,49.33
2023-04-07T09:25:52.143Z,35.33
2023-04-07T09:28:58.913Z,18.25
2023-04-07T09:32:02.928Z,13.05
2023-04-07T09:35:06.916Z,11.50
2023-04-07T09:38:11.544Z,8.23
2023-04-07T09:41:18.805Z,20.10
2023-04-07T09:44:24.193Z,23.27
2023-04-07T09:47:31.595Z,16.83
2023-04-07T09:50:36.157Z,6.97
2023-04-07T09:53:52.056Z,11.43
2023-04-07T09:56:57.031Z,10.90
2023-04-07T10:00:00.640Z,8.98
2023-04-07T10:03:05.861Z,11.35
2023-04-07T10:06:09.974Z,9.88
2023-04-07T10:09:13.624Z,9.63
2023-04-07T10:12:17.259Z,14.40
2023-04-07T10:15:21.858Z,12.55
2023-04-07T10:18:35.059Z,13.90
2023-04-07T10:21:41.055Z,11.48
2023-04-07T10:24:59.660Z,9.73
2023-04-07T10:28:09.329Z,10.53
2023-04-07T10:31:13.879Z,10.45
2023-04-07T10:34:19.198Z,11.50
2023-04-07T10:37:23.832Z,16.25
2023-04-07T10:40:30.804Z,19.83
2023-04-07T10:43:42.428Z,13.27
2023-04-07T10:46:46.415Z,22.25
2023-04-07T10:50:22.188Z,24.45
2023-04-07T10:53:25.588Z,31.13
2023-04-07T10:57:04.419Z,24.53
2023-04-07T11:00:11.703Z,23.30
2023-04-07T11:03:15.290Z,26.92
2023-04-07T11:06:19.443Z,20.75
2023-04-07T11:09:23.526Z,34.45
2023-04-07T11:12:27.734Z,21.10
2023-04-07T11:15:30.956Z,14.00
2023-04-07T11:18:35.023Z,13.23
2023-04-07T11:21:38.030Z,13.15
2023-04-07T11:24:42.140Z,18.90
2023-04-07T11:27:45.750Z,18.20
2023-04-07T11:30:55.090Z,31.87
2023-04-07T11:34:00.697Z,35.38
2023-04-07T11:37:24.469Z,42.85
2023-04-07T11:40:35.282Z,48.22
2023-04-07T11:43:38.912Z,35.43
2023-04-07T11:46:58.831Z,40.67
2023-04-07T11:50:02.266Z,41.50
2023-04-07T11:53:05.291Z,34.95
2023-04-07T11:56:11.117Z,33.60
2023-04-07T11:59:23.604Z,29.40
2023-04-07T12:02:35.298Z,23.33
2023-04-07T12:05:45.738Z,18.63
2023-04-07T12:08:49.789Z,15.63
2023-04-07T12:11:53.330Z,21.15
2023-04-07T12:14:57.932Z,24.03
2023-04-07T12:18:01.933Z,17.57
2023-04-07T12:21:06.349Z,31.67
2023-04-07T12:24:10.037Z,21.98
2023-04-07T12:27:14.212Z,24.08
2023-04-07T12:30:18.262Z,18.33
2023-04-07T12:33:22.798Z,20.50
2023-04-07T12:36:28.254Z,17.90
2023-04-07T12:39:32.693Z,20.50
2023-04-07T12:42:36.638Z,17.17
2023-04-07T12:45:40.884Z,19.97
2023-04-07T12:48:44.993Z,31.30
2023-04-07T12:51:48.918Z,21.20
2023-04-07T12:54:52.905Z,20.38
2023-04-07T12:57:56.632Z,21.15
2023-04-07T13:01:01.310Z,24.93
2023-04-07T13:04:05.124Z,28.70
2023-04-07T13:07:08.920Z,43.33
2023-04-07T13:10:13.092Z,66.35
2023-04-07T13:13:17.027Z,42.85
2023-04-07T13:16:22.656Z,47.60
2023-04-07T13:19:26.660Z,54.70
2023-04-07T13:22:31.877Z,61.45
2023-04-07T13:25:35.976Z,56.05
2023-04-07T13:28:40.184Z,36.30
2023-04-07T13:31:46.110Z,27.43
2023-04-07T13:34:49.451Z,38.33
2023-04-07T13:37:52.524Z,61.17
2023-04-07T13:40:55.958Z,77.97
2023-04-07T13:43:59.877Z,66.85
2023-04-07T13:47:04.028Z,63.10
2023-04-07T13:50:08.291Z,56.77
2023-04-07T13:53:12.463Z,58.22
2023-04-07T13:56:16.027Z,48.47
2023-04-07T13:59:19.544Z,53.63
2023-04-07T14:02:23.330Z,40.80
2023-04-07T14:05:26.969Z,40.10
2023-04-07T14:08:30.265Z,29.38
2023-04-07T14:11:35.736Z,59.55
2023-04-07T14:14:39.345Z,44.97
2023-04-07T14:17:42.654Z,53.73
2023-04-07T14:20:45.967Z,43.67
2023-04-07T14:23:49.053Z,70.95
2023-04-07T14:26:52.344Z,71.05
2023-04-07T14:29:56.954Z,65.25
2023-04-07T14:33:01.074Z,62.47
2023-04-07T14:36:06.182Z,63.70
2023-04-07T14:39:09.800Z,86.63
2023-04-07T14:42:13.552Z,87.25
2023-04-07T14:45:18.364Z,38.75
2023-04-07T14:48:22.657Z,23.33
2023-04-07T14:51:26.469Z,32.40
2023-04-07T14:54:30.203Z,82.93
2023-04-07T14:57:33.215Z,75.75
2023-04-07T15:00:37.163Z,74.60
2023-04-07T15:03:40.607Z,89.63
2023-04-07T15:06:46.144Z,78.60
2023-04-07T15:09:50.230Z,88.13
2023-04-07T15:12:53.607Z,81.75
2023-04-07T15:15:57.277Z,75.30
2023-04-07T15:19:00.849Z,134.50
2023-04-07T15:22:03.972Z,86.47
2023-04-07T15:25:07.623Z,95.53
2023-04-07T15:28:10.638Z,94.57
2023-04-07T15:31:14.828Z,100.90
2023-04-07T15:34:17.829Z,103.17
2023-04-07T15:37:21.290Z,104.90
2023-04-07T15:40:24.425Z,82.28
2023-04-07T15:43:28.612Z,100.10
2023-04-07T15:46:35.155Z,105.80
2023-04-07T15:49:39.365Z,113.10
2023-04-07T15:52:42.739Z,90.90
2023-04-07T15:55:46.187Z,121.88
2023-04-07T15:58:49.777Z,112.43
2023-04-07T16:01:54.397Z,106.88
2023-04-07T16:04:58.578Z,111.87
2023-04-07T16:08:01.740Z,98.40
2023-04-07T16:11:05.189Z,107.70
2023-04-07T16:14:09.349Z,95.93
2023-04-07T16:17:13.604Z,95.95
2023-04-07T16:20:17.327Z,95.27
2023-04-07T16:23:20.980Z,162.17
2023-04-07T16:26:25.160Z,96.00
2023-04-07T16:29:28.988Z,96.93
2023-04-07T16:32:34.059Z,79.70
2023-04-07T16:35:38.005Z,68.47
2023-04-07T16:38:41.855Z,86.53
2023-04-07T16:41:45.895Z,68.45
2023-04-07T16:44:50.057Z,90.15
2023-04-07T16:47:53.820Z,75.65
2023-04-07T16:50:58.120Z,77.03
2023-04-07T16:54:01.880Z,97.67
2023-04-07T16:57:06.016Z,70.78
2023-04-07T17:00:10.452Z,63.30
2023-04-07T17:03:17.689Z,68.68
2023-04-07T17:06:21.050Z,63.17
2023-04-07T17:09:24.535Z,65.30
2023-04-07T17:12:28.410Z,72.93
2023-04-07T17:15:32.532Z,61.10
2023-04-07T17:18:36.317Z,56.70
2023-04-07T17:21:40.279Z,78.70
2023-04-07T17:24:44.029Z,56.60
2023-04-07T17:27:49.158Z,60.42
2023-04-07T17:30:52.063Z,61.03
2023-04-07T17:33:56.069Z,53.60
2023-04-07T17:36:59.089Z,50.40
2023-04-07T17:40:02.800Z,53.87
2023-04-07T17:43:07.171Z,54.70
2023-04-07T17:46:10.921Z,60.28
2023-04-07T17:49:15.398Z,68.45
2023-04-07T17:52:19.045Z,52.70
2023-04-07T17:55:23.503Z,52.63
2023-04-07T17:58:27.313Z,46.97
2023-04-07T18:01:31.592Z,38.22
2023-04-07T18:04:37.117Z,40.30
2023-04-07T18:07:41.048Z,38.73
2023-04-07T18:10:44.648Z,27.87
2023-04-07T18:13:49.037Z,28.88
2023-04-07T18:16:54.658Z,40.05
2023-04-07T18:19:58.710Z,34.22
2023-04-07T18:23:02.660Z,37.63
2023-04-07T18:26:08.685Z,56.90
2023-04-07T18:29:12.960Z,34.53
2023-04-07T18:32:16.505Z,37.17
2023-04-07T18:35:20.552Z,34.70
2023-04-07T18:38:23.853Z,36.20
2023-04-07T18:41:27.882Z,35.63
2023-04-07T18:44:31.352Z,41.72
2023-04-07T18:47:34.808Z,35.47
2023-04-07T18:50:38.967Z,42.65
2023-04-07T18:53:42.355Z,31.83
2023-04-07T18:56:46.407Z,33.53
2023-04-07T18:59:49.592Z,36.67
2023-04-07T19:02:53.809Z,49.60
2023-04-07T19:06:02.831Z,29.73
2023-04-07T19:09:06.952Z,40.03
2023-04-07T19:12:10.438Z,36.90
2023-04-07T19:15:13.469Z,42.92
2023-04-07T19:18:16.557Z,29.58
2023-04-07T19:21:21.322Z,36.30
2023-04-07T19:24:25.077Z,38.30
2023-04-07T19:27:28.896Z,40.90
2023-04-07T19:30:32.732Z,44.35
2023-04-07T19:33:36.450Z,41.08
2023-04-07T19:36:39.517Z,35.65
2023-04-07T19:39:52.205Z,41.37
2023-04-07T19:43:03.686Z,39.13
2023-04-07T19:46:07.018Z,30.92
2023-04-07T19:49:12.242Z,45.65
2023-04-07T19:52:15.703Z,36.92
2023-04-07T19:55:19.959Z,28.20
2023-04-07T19:58:23.958Z,31.63
2023-04-07T20:01:27.032Z,32.25
2023-04-07T20:04:30.901Z,27.98
2023-04-07T20:07:34.919Z,27.25
2023-04-07T20:10:38.608Z,24.13
2023-04-07T20:13:43.382Z,25.27
2023-04-07T20:16:47.276Z,29.25
2023-04-07T20:19:54.966Z,21.02
2023-04-07T20:22:58.146Z,36.63
2023-04-07T20:26:05.172Z,56.27
2023-04-07T20:29:09.440Z,84.80
2023-04-07T20:32:12.920Z,30.98
2023-04-07T20:35:16.489Z,33.47
2023-04-07T20:38:21.051Z,34.03
2023-04-07T20:41:24.218Z,34.83
2023-04-07T20:44:29.000Z,29.60
2023-04-07T20:47:32.891Z,27.45
2023-04-07T20:50:36.324Z,18.15
2023-04-07T20:53:40.410Z,19.73
2023-04-07T20:56:45.642Z,18.53
2023-04-07T20:59:49.334Z,42.17
2023-04-07T21:02:53.486Z,26.35
2023-04-07T21:05:57.969Z,14.73
2023-04-07T21:09:02.296Z,23.85
2023-04-07T21:12:06.197Z,25.57
2023-04-07T21:15:10.506Z,19.60
2023-04-07T21:18:13.853Z,18.25
2023-04-07T21:21:17.546Z,21.98
2023-04-07T21:24:22.042Z,19.27
2023-04-07T21:27:26.103Z,24.83
2023-04-07T21:30:29.669Z,36.63
2023-04-07T21:33:34.855Z,18.42
2023-04-07T21:36:38.887Z,20.40
2023-04-07T21:39:42.814Z,25.80
2023-04-07T21:42:45.879Z,24.70
2023-04-07T21:45:49.963Z,25.98
2023-04-07T21:48:53.073Z,22.70
2023-04-07T21:51:56.417Z,16.95
2023-04-07T21:54:59.465Z,24.35
2023-04-07T21:58:02.830Z,27.37
2023-04-07T22:01:06.390Z,38.55
2023-04-07T22:04:10.591Z,40.15
2023-04-07T22:07:14.566Z,34.78
2023-04-07T22:10:17.850Z,42.85
2023-04-07T22:13:21.740Z,38.00
2023-04-07T22:16:25.516Z,36.03
2023-04-07T22:19:29.501Z,41.78
2023-04-07T22:22:33.237Z,34.83
2023-04-07T22:25:36.554Z,25.33
2023-04-07T22:28:39.663Z,22.20
2023-04-07T22:31:42.782Z,38.93
2023-04-07T22:34:47.104Z,30.50
2023-04-07T22:37:50.750Z,33.38
2023-04-07T22:40:54.115Z,23.98
2023-04-07T22:43:58.565Z,50.80
2023-04-07T22:47:02.058Z,48.67
2023-04-07T22:50:05.795Z,38.65
2023-04-07T22:53:09.787Z,37.20
2023-04-07T22:56:14.007Z,47.47
2023-04-07T22:59:17.786Z,37.17
2023-04-07T23:02:22.373Z,50.17
2023-04-07T23:05:26.234Z,35.85
2023-04-07T23:08:29.815Z,49.20
2023-04-07T23:11:33.582Z,44.92
2023-04-07T23:14:36.951Z,44.03
2023-04-07T23:17:40.582Z,44.67
2023-04-07T23:20:51.919Z,51.08
2023-04-07T23:23:55.138Z,31.15
2023-04-07T23:26:59.712Z,36.58
2023-04-07T23:30:03.438Z,44.40
2023-04-07T23:33:07.540Z,35.80
2023-04-07T23:36:10.995Z,52.88
2023-04-07T23:39:15.086Z,36.35
2023-04-07T23:42:18.760Z,35.58
2023-04-07T23:45:23.410Z,46.47
2023-04-07T23:48:27.861Z,50.23
2023-04-07T23:51:32.638Z,22.65
2023-04-07T23:54:36.032Z,28.20
2023-04-07T23:57:39.930Z,29.67
